Time;durP1;ratioP1;P1;durP2;ratioP2;P2;SDS_P1;SDS_P2;PMS_P1;PMS_P2;Temp;Humidity;BMP_temperature;BMP_pressure;BME280_temperature;BME280_humidity;BME280_pressure;Samples;Min_cycle;Max_cycle;Signal;HPM_P1;HPM_P2
2021/07/27 00:01:19;;;;;;;8.18;5.10;;;;;;;;;;6302764;22;20348;-33
2021/07/27 00:03:45;;;;;;;9.15;4.68;;;;;;;;;;6302842;22;20443;-33
2021/07/27 00:06:11;;;;;;;9.68;5.90;;;;;;;;;;6302463;22;20432;-33
2021/07/27 00:08:36;;;;;;;9.73;5.45;;;;;;;;;;6302351;22;20002;-33
2021/07/27 00:11:05;;;;;;;6.80;4.45;;;;;;;;;;6302187;22;20006;-33
2021/07/27 00:13:31;;;;;;;3.95;3.38;;;;;;;;;;6302871;22;19999;-33
2021/07/27 00:15:56;;;;;;;6.32;3.45;;;;;;;;;;6302625;22;20472;-33
2021/07/27 00:18:22;;;;;;;7.10;3.88;;;;;;;;;;6301744;22;20537;-33
2021/07/27 00:20:48;;;;;;;6.35;4.05;;;;;;;;;;6302455;22;20007;-33
2021/07/27 00:23:13;;;;;;;7.15;5.70;;;;;;;;;;6302252;22;20006;-33
2021/07/27 00:25:40;;;;;;;7.55;4.10;;;;;;;;;;6301940;22;19999;-33
2021/07/27 00:28:05;;;;;;;9.10;5.05;;;;;;;;;;6302121;22;19995;-33
2021/07/27 00:30:31;;;;;;;8.63;3.88;;;;;;;;;;6301887;22;20378;-33
2021/07/27 00:32:56;;;;;;;5.85;4.07;;;;;;;;;;6301391;22;20390;-33
2021/07/27 00:35:22;;;;;;;5.43;3.85;;;;;;;;;;6302074;22;20034;-34
2021/07/27 00:37:57;;;;;;;5.68;4.22;;;;;;;;;;6301920;22;19995;-33
2021/07/27 00:40:23;;;;;;;8.35;4.53;;;;;;;;;;6302446;22;19995;-33
2021/07/27 00:42:48;;;;;;;7.55;4.63;;;;;;;;;;6302021;22;20425;-33
2021/07/27 00:45:14;;;;;;;5.82;4.13;;;;;;;;;;6302025;22;20082;-33
2021/07/27 00:47:39;;;;;;;5.82;4.70;;;;;;;;;;6302126;22;19991;-33
2021/07/27 00:50:07;;;;;;;8.30;4.75;;;;;;;;;;6301560;22;20416;-33
2021/07/27 00:52:32;;;;;;;9.85;5.30;;;;;;;;;;6302054;22;20352;-33
2021/07/27 00:54:58;;;;;;;6.43;5.10;;;;;;;;;;6301869;22;20003;-33
2021/07/27 00:57:23;;;;;;;11.48;5.65;;;;;;;;;;6301971;22;19999;-33
2021/07/27 00:59:49;;;;;;;10.27;5.03;;;;;;;;;;6301528;22;20010;-33
2021/07/27 01:02:14;;;;;;;7.43;4.05;;;;;;;;;;6301222;22;20010;-33
2021/07/27 01:04:39;;;;;;;7.38;3.22;;;;;;;;;;6302033;22;19992;-33
2021/07/27 01:07:05;;;;;;;4.82;4.38;;;;;;;;;;6301848;22;20015;-33
2021/07/27 01:09:30;;;;;;;5.15;3.63;;;;;;;;;;6301979;22;20006;-33
2021/07/27 01:11:58;;;;;;;11.90;5.93;;;;;;;;;;6301398;22;20007;-32
2021/07/27 01:14:23;;;;;;;5.80;4.40;;;;;;;;;;6302065;22;20003;-33
2021/07/27 01:16:48;;;;;;;9.15;4.93;;;;;;;;;;6301843;22;20002;-33
2021/07/27 01:19:45;;;;;;;9.35;3.92;;;;;;;;;;6301470;22;20037;-33
2021/07/27 01:43:34;;;;;;;10.68;5.20;;;;;;;;;;6301723;22;19999;-33
2021/07/27 01:45:59;;;;;;;10.13;7.03;;;;;;;;;;6301129;22;20030;-33
2021/07/27 01:48:27;;;;;;;10.10;6.30;;;;;;;;;;6301161;22;20000;-33
2021/07/27 01:50:53;;;;;;;15.95;6.47;;;;;;;;;;6301171;22;20011;-33
2021/07/27 01:53:27;;;;;;;20.80;7.05;;;;;;;;;;6301774;22;20064;-33
2021/07/27 01:55:53;;;;;;;5.47;4.90;;;;;;;;;;6301376;22;20452;-33
2021/07/27 01:58:18;;;;;;;6.07;5.45;;;;;;;;;;6301404;22;20003;-33
2021/07/27 02:00:43;;;;;;;7.38;5.93;;;;;;;;;;6301221;22;20448;-33
2021/07/27 02:03:09;;;;;;;22.88;7.47;;;;;;;;;;6301025;22;19995;-33
2021/07/27 02:05:34;;;;;;;7.28;5.35;;;;;;;;;;6301286;22;19995;-33
2021/07/27 02:07:59;;;;;;;13.10;5.60;;;;;;;;;;6301375;22;19999;-33
2021/07/27 02:10:26;;;;;;;5.82;4.75;;;;;;;;;;6301221;22;20360;-33
2021/07/27 02:13:03;;;;;;;13.00;5.50;;;;;;;;;;6301320;22;19995;-33
2021/07/27 02:15:38;;;;;;;5.95;4.78;;;;;;;;;;6301103;22;19999;-33
2021/07/27 02:18:04;;;;;;;9.02;4.13;;;;;;;;;;6300929;22;19991;-33
2021/07/27 02:20:32;;;;;;;9.18;5.25;;;;;;;;;;6300898;22;19995;-33
2021/07/27 02:22:58;;;;;;;5.53;4.07;;;;;;;;;;6301303;22;19999;-33
2021/07/27 02:25:23;;;;;;;18.02;7.28;;;;;;;;;;6301402;22;20006;-33
2021/07/27 02:27:48;;;;;;;17.77;6.10;;;;;;;;;;6301395;22;20006;-33
2021/07/27 02:30:14;;;;;;;9.02;5.80;;;;;;;;;;6301345;22;20022;-33
2021/07/27 02:32:39;;;;;;;7.32;5.10;;;;;;;;;;6300985;22;19991;-33
2021/07/27 02:35:06;;;;;;;6.22;4.95;;;;;;;;;;6301358;22;19999;-33
2021/07/27 02:37:32;;;;;;;7.07;5.40;;;;;;;;;;6301020;22;20002;-33
2021/07/27 02:39:58;;;;;;;13.57;5.82;;;;;;;;;;6301143;22;19995;-33
2021/07/27 02:42:23;;;;;;;10.63;5.97;;;;;;;;;;6301421;22;20006;-33
2021/07/27 02:44:48;;;;;;;8.90;6.70;;;;;;;;;;6301392;22;20367;-33
2021/07/27 02:47:14;;;;;;;7.82;5.72;;;;;;;;;;6300905;22;20391;-33
2021/07/27 02:49:39;;;;;;;8.00;5.55;;;;;;;;;;6301292;22;20038;-33
2021/07/27 02:52:04;;;;;;;7.53;4.18;;;;;;;;;;6300906;22;20512;-33
2021/07/27 02:54:34;;;;;;;5.60;4.20;;;;;;;;;;6301038;22;19999;-33
2021/07/27 02:57:01;;;;;;;14.15;6.30;;;;;;;;;;6300695;22;19995;-33
2021/07/27 02:59:26;;;;;;;6.38;4.85;;;;;;;;;;6301221;22;20011;-33
2021/07/27 03:01:52;;;;;;;6.80;4.80;;;;;;;;;;6300761;22;19995;-33
2021/07/27 03:04:17;;;;;;;11.40;6.22;;;;;;;;;;6300794;22;20003;-33
2021/07/27 03:06:45;;;;;;;10.95;5.07;;;;;;;;;;6301540;22;20031;-33
2021/07/27 03:09:15;;;;;;;11.15;4.18;;;;;;;;;;6300924;22;19991;-33
2021/07/27 03:11:41;;;;;;;9.20;6.05;;;;;;;;;;6300788;22;20455;-33
2021/07/27 03:14:06;;;;;;;7.30;5.38;;;;;;;;;;6301022;22;19999;-34
2021/07/27 03:16:31;;;;;;;11.05;5.93;;;;;;;;;;6301184;22;20066;-33
2021/07/27 03:18:57;;;;;;;8.38;5.65;;;;;;;;;;6300096;22;20652;-33
2021/07/27 03:21:24;;;;;;;13.40;6.47;;;;;;;;;;6300804;22;20003;-33
2021/07/27 03:23:49;;;;;;;6.40;4.78;;;;;;;;;;6301492;22;20000;-33
2021/07/27 03:26:15;;;;;;;7.15;6.10;;;;;;;;;;6302566;22;20075;-33
2021/07/27 03:28:41;;;;;;;7.40;5.30;;;;;;;;;;6302625;22;19991;-32
2021/07/27 03:31:06;;;;;;;6.65;4.55;;;;;;;;;;6303012;22;19999;-33
2021/07/27 03:33:31;;;;;;;19.27;4.82;;;;;;;;;;6302611;22;19999;-33
2021/07/27 03:35:57;;;;;;;6.20;4.45;;;;;;;;;;6302618;22;20031;-33
2021/07/27 03:38:22;;;;;;;14.38;5.75;;;;;;;;;;6302365;22;20021;-33
2021/07/27 03:40:47;;;;;;;13.50;7.57;;;;;;;;;;6302996;22;20006;-33
2021/07/27 03:43:13;;;;;;;9.63;6.65;;;;;;;;;;6302692;22;20443;-33
2021/07/27 03:45:38;;;;;;;13.07;8.38;;;;;;;;;;6302542;22;20003;-33
2021/07/27 03:48:03;;;;;;;14.57;6.57;;;;;;;;;;6302836;22;20100;-34
2021/07/27 03:50:29;;;;;;;13.38;7.68;;;;;;;;;;6301990;22;20002;-33
2021/07/27 03:52:54;;;;;;;11.23;6.00;;;;;;;;;;6302300;22;20027;-34
2021/07/27 03:55:19;;;;;;;8.10;5.93;;;;;;;;;;6302674;22;20026;-33
2021/07/27 03:57:44;;;;;;;7.68;5.22;;;;;;;;;;6302479;22;20453;-33
2021/07/27 04:00:10;;;;;;;7.95;5.75;;;;;;;;;;6302741;22;19995;-33
2021/07/27 04:02:35;;;;;;;10.57;6.32;;;;;;;;;;6302055;22;20026;-33
2021/07/27 04:05:01;;;;;;;6.97;4.18;;;;;;;;;;6302187;22;20078;-34
2021/07/27 04:07:26;;;;;;;3.80;3.33;;;;;;;;;;6302730;22;19991;-33
2021/07/27 04:09:52;;;;;;;8.00;4.68;;;;;;;;;;6302616;22;20409;-34
2021/07/27 04:12:17;;;;;;;10.57;5.72;;;;;;;;;;6302966;22;20448;-33
2021/07/27 04:14:42;;;;;;;13.88;4.70;;;;;;;;;;6302458;22;20364;-34
2021/07/27 04:17:07;;;;;;;8.30;6.10;;;;;;;;;;6302032;22;20037;-34
2021/07/27 04:19:33;;;;;;;6.63;5.13;;;;;;;;;;6302234;22;20026;-33
2021/07/27 04:21:58;;;;;;;10.05;4.60;;;;;;;;;;6302345;22;20002;-33
2021/07/27 04:24:23;;;;;;;8.77;5.38;;;;;;;;;;6302120;22;19992;-33
2021/07/27 04:26:49;;;;;;;9.18;5.75;;;;;;;;;;6302239;22;19999;-33
2021/07/27 04:29:17;;;;;;;6.28;4.10;;;;;;;;;;6302253;22;19995;-33
2021/07/27 04:31:43;;;;;;;6.63;4.28;;;;;;;;;;6302435;22;19999;-33
2021/07/27 04:34:08;;;;;;;6.55;5.28;;;;;;;;;;6301504;22;20026;-33
2021/07/27 04:36:34;;;;;;;8.55;5.05;;;;;;;;;;6302310;22;19999;-33
2021/07/27 04:38:59;;;;;;;9.18;4.40;;;;;;;;;;6302136;22;19999;-33
2021/07/27 04:41:24;;;;;;;6.45;3.75;;;;;;;;;;6302234;22;20002;-34
2021/07/27 04:43:49;;;;;;;14.27;8.23;;;;;;;;;;6301753;22;20416;-33
2021/07/27 04:46:15;;;;;;;11.80;5.38;;;;;;;;;;6302538;22;20000;-33
2021/07/27 04:48:40;;;;;;;7.75;5.13;;;;;;;;;;6302322;22;20332;-33
2021/07/27 04:51:05;;;;;;;7.38;4.45;;;;;;;;;;6301899;22;19999;-33
2021/07/27 04:53:34;;;;;;;18.80;6.07;;;;;;;;;;6302182;22;20060;-33
2021/07/27 04:56:00;;;;;;;11.07;5.50;;;;;;;;;;6302045;22;19996;-33
2021/07/27 04:58:26;;;;;;;9.48;5.10;;;;;;;;;;6302342;22;20003;-33
2021/07/27 05:00:51;;;;;;;15.55;4.78;;;;;;;;;;6302276;22;20053;-33
2021/07/27 05:03:16;;;;;;;22.52;5.13;;;;;;;;;;6301844;22;20615;-33
2021/07/27 05:05:42;;;;;;;7.72;7.00;;;;;;;;;;6301612;22;19991;-33
2021/07/27 05:08:07;;;;;;;9.23;5.53;;;;;;;;;;6302370;22;19995;-33
2021/07/27 05:10:33;;;;;;;4.50;4.00;;;;;;;;;;6301748;22;20075;-33
2021/07/27 05:12:58;;;;;;;9.48;7.30;;;;;;;;;;6301656;22;20006;-33
2021/07/27 05:15:23;;;;;;;6.95;4.22;;;;;;;;;;6301561;22;20003;-33
2021/07/27 05:17:49;;;;;;;7.97;5.85;;;;;;;;;;6301564;22;20008;-35
2021/07/27 05:20:14;;;;;;;6.57;5.55;;;;;;;;;;6301346;22;20023;-37
2021/07/27 05:22:39;;;;;;;15.50;12.00;;;;;;;;;;6302305;22;20003;-41
2021/07/27 05:25:05;;;;;;;9.02;6.15;;;;;;;;;;6301934;22;20412;-42
2021/07/27 05:27:34;;;;;;;10.73;9.15;;;;;;;;;;6301378;22;19995;-42
2021/07/27 05:30:00;;;;;;;27.30;18.55;;;;;;;;;;6301349;22;20053;-42
2021/07/27 05:32:25;;;;;;;30.52;26.88;;;;;;;;;;6301236;22;20007;-42
2021/07/27 05:34:50;;;;;;;16.20;10.30;;;;;;;;;;6301731;22;19995;-42
2021/07/27 05:37:16;;;;;;;8.80;5.90;;;;;;;;;;6302191;22;20449;-41
2021/07/27 05:39:41;;;;;;;15.25;6.40;;;;;;;;;;6301692;22;20409;-42
2021/07/27 05:42:07;;;;;;;15.10;13.63;;;;;;;;;;6301024;22;20117;-42
2021/07/27 05:44:32;;;;;;;10.50;6.95;;;;;;;;;;6301841;22;19996;-42
2021/07/27 05:46:58;;;;;;;13.43;8.10;;;;;;;;;;6301083;22;20499;-42
2021/07/27 05:49:25;;;;;;;14.68;10.95;;;;;;;;;;6300746;22;20085;-42
2021/07/27 05:51:50;;;;;;;42.78;34.53;;;;;;;;;;6301832;22;20070;-42
2021/07/27 05:54:18;;;;;;;33.28;24.67;;;;;;;;;;6301713;22;20532;-42
2021/07/27 05:56:44;;;;;;;25.05;16.92;;;;;;;;;;6301825;22;19999;-42
2021/07/27 05:59:09;;;;;;;33.33;25.77;;;;;;;;;;6301702;22;20384;-42
2021/07/27 06:01:34;;;;;;;23.25;20.77;;;;;;;;;;6301162;22;20333;-42
2021/07/27 06:03:59;;;;;;;40.03;29.80;;;;;;;;;;6300973;22;20075;-42
2021/07/27 06:06:28;;;;;;;130.57;85.53;;;;;;;;;;6301463;22;19999;-42
2021/07/27 06:08:53;;;;;;;179.27;145.90;;;;;;;;;;6301275;22;20443;-43
2021/07/27 06:11:18;;;;;;;136.45;102.57;;;;;;;;;;6301552;22;20049;-43
2021/07/27 06:13:44;;;;;;;65.32;42.97;;;;;;;;;;6300811;22;19999;-43
2021/07/27 06:16:09;;;;;;;430.30;351.08;;;;;;;;;;6301724;22;20010;-43
2021/07/27 06:18:34;;;;;;;200.13;155.25;;;;;;;;;;6301009;22;20538;-43
2021/07/27 06:21:00;;;;;;;163.85;119.53;;;;;;;;;;6300988;22;20566;-42
2021/07/27 06:23:26;;;;;;;138.18;98.05;;;;;;;;;;6301289;22;19999;-42
2021/07/27 06:25:52;;;;;;;87.97;72.75;;;;;;;;;;6301323;22;20095;-42
2021/07/27 06:28:17;;;;;;;57.60;39.72;;;;;;;;;;6300848;22;20094;-42
2021/07/27 06:30:42;;;;;;;51.78;39.63;;;;;;;;;;6300662;22;19995;-42
2021/07/27 06:33:08;;;;;;;67.43;50.83;;;;;;;;;;6300968;22;20102;-42
2021/07/27 06:35:33;;;;;;;68.63;46.40;;;;;;;;;;6300962;22;20373;-42
2021/07/27 06:37:58;;;;;;;40.95;33.42;;;;;;;;;;6300692;22;20045;-42
2021/07/27 06:40:24;;;;;;;36.55;28.85;;;;;;;;;;6300686;22;20003;-43
2021/07/27 06:42:49;;;;;;;28.83;23.63;;;;;;;;;;6300815;22;19999;-42
2021/07/27 06:45:14;;;;;;;34.20;26.23;;;;;;;;;;6300389;22;19999;-43
2021/07/27 06:47:40;;;;;;;37.17;18.75;;;;;;;;;;6301294;22;20078;-42
2021/07/27 06:50:05;;;;;;;22.20;19.00;;;;;;;;;;6299596;22;20325;-42
2021/07/27 06:52:31;;;;;;;35.05;21.70;;;;;;;;;;6299347;22;20033;-42
2021/07/27 06:54:56;;;;;;;42.72;26.83;;;;;;;;;;6299908;22;19999;-42
2021/07/27 06:57:22;;;;;;;31.27;22.33;;;;;;;;;;6300511;22;20006;-42
2021/07/27 06:59:47;;;;;;;28.85;22.40;;;;;;;;;;6301859;22;19999;-42
2021/07/27 07:02:12;;;;;;;24.77;15.80;;;;;;;;;;6303078;22;20336;-42
2021/07/27 07:04:38;;;;;;;23.27;14.68;;;;;;;;;;6303142;22;20003;-42
2021/07/27 07:07:06;;;;;;;24.85;21.88;;;;;;;;;;6303019;22;19999;-43
2021/07/27 07:09:31;;;;;;;36.40;26.95;;;;;;;;;;6302909;22;20018;-45
2021/07/27 07:11:56;;;;;;;30.48;25.30;;;;;;;;;;6302913;22;20061;-42
2021/07/27 07:14:22;;;;;;;39.63;21.05;;;;;;;;;;6302799;22;20006;-42
2021/07/27 07:16:48;;;;;;;30.23;21.73;;;;;;;;;;6302962;22;20061;-43
2021/07/27 07:19:13;;;;;;;21.48;19.23;;;;;;;;;;6302638;22;20072;-42
2021/07/27 07:21:39;;;;;;;27.25;17.48;;;;;;;;;;6302366;22;20431;-44
2021/07/27 07:24:04;;;;;;;22.48;16.45;;;;;;;;;;6302463;22;20479;-42
2021/07/27 07:26:30;;;;;;;22.25;15.82;;;;;;;;;;6301528;22;20007;-43
2021/07/27 07:28:55;;;;;;;20.38;10.68;;;;;;;;;;6302311;22;19995;-43
2021/07/27 07:31:20;;;;;;;11.48;8.77;;;;;;;;;;6302969;22;20010;-43
2021/07/27 07:33:46;;;;;;;10.32;7.45;;;;;;;;;;6302741;22;20332;-43
2021/07/27 07:36:12;;;;;;;10.43;8.98;;;;;;;;;;6302393;22;20421;-42
2021/07/27 07:38:37;;;;;;;15.13;11.75;;;;;;;;;;6302478;22;20007;-43
2021/07/27 07:41:12;;;;;;;17.58;12.73;;;;;;;;;;6302413;22;20003;-42
2021/07/27 07:43:38;;;;;;;36.22;11.07;;;;;;;;;;6302815;22;20504;-43
2021/07/27 07:46:03;;;;;;;15.93;9.13;;;;;;;;;;6302522;22;20022;-43
2021/07/27 07:48:29;;;;;;;12.90;9.25;;;;;;;;;;6302342;22;20025;-43
2021/07/27 07:50:54;;;;;;;9.95;7.03;;;;;;;;;;6302296;22;20079;-43
2021/07/27 07:53:19;;;;;;;6.25;3.72;;;;;;;;;;6302279;22;20437;-43
2021/07/27 07:55:45;;;;;;;7.47;4.97;;;;;;;;;;6302087;22;20139;-43
2021/07/27 07:58:10;;;;;;;6.95;5.72;;;;;;;;;;6302495;22;19999;-42
2021/07/27 08:00:35;;;;;;;10.48;3.75;;;;;;;;;;6302598;22;20388;-43
2021/07/27 08:03:01;;;;;;;6.30;4.38;;;;;;;;;;6302273;22;20484;-43
2021/07/27 08:05:26;;;;;;;18.02;4.47;;;;;;;;;;6302609;22;19995;-43
2021/07/27 08:07:52;;;;;;;5.85;3.97;;;;;;;;;;6300755;22;20436;-43
2021/07/27 08:10:17;;;;;;;12.45;11.15;;;;;;;;;;6300707;22;19999;-46
2021/07/27 08:12:49;;;;;;;16.77;4.45;;;;;;;;;;6301417;22;20007;-49
2021/07/27 08:15:15;;;;;;;9.98;3.72;;;;;;;;;;6301172;22;20464;-47
2021/07/27 08:17:40;;;;;;;7.40;4.65;;;;;;;;;;6301857;22;20003;-48
2021/07/27 08:20:06;;;;;;;16.55;6.50;;;;;;;;;;6301121;22;20604;-47
2021/07/27 08:22:31;;;;;;;6.88;6.07;;;;;;;;;;6302277;22;19999;-46
2021/07/27 08:24:56;;;;;;;6.20;5.60;;;;;;;;;;6301970;22;19991;-46
2021/07/27 08:27:22;;;;;;;11.73;5.32;;;;;;;;;;6302050;22;20573;-46
2021/07/27 08:29:47;;;;;;;9.75;5.55;;;;;;;;;;6302820;22;20053;-46
2021/07/27 08:32:12;;;;;;;10.50;4.68;;;;;;;;;;6301888;22;20103;-46
2021/07/27 08:34:39;;;;;;;7.95;4.40;;;;;;;;;;6301849;22;20679;-46
2021/07/27 08:37:04;;;;;;;4.80;3.67;;;;;;;;;;6301880;22;20003;-46
2021/07/27 08:39:30;;;;;;;5.40;3.22;;;;;;;;;;6301707;22;20121;-46
2021/07/27 08:41:58;;;;;;;6.05;3.47;;;;;;;;;;6302225;22;20011;-46
2021/07/27 08:44:26;;;;;;;10.07;4.45;;;;;;;;;;6302395;22;19991;-46
2021/07/27 08:46:51;;;;;;;14.50;4.97;;;;;;;;;;6301708;22;19999;-46
2021/07/27 08:49:16;;;;;;;6.53;4.32;;;;;;;;;;6302001;22;19995;-46
2021/07/27 08:51:43;;;;;;;70.63;19.95;;;;;;;;;;6302036;22;19995;-44
2021/07/27 08:54:08;;;;;;;10.30;4.00;;;;;;;;;;6301808;22;19999;-43
2021/07/27 08:56:34;;;;;;;281.73;52.75;;;;;;;;;;6302007;22;20088;-63
2021/07/27 08:58:59;;;;;;;8.35;4.65;;;;;;;;;;6301844;22;20344;-58
2021/07/27 09:01:26;;;;;;;10.15;4.68;;;;;;;;;;6301902;22;19995;-56
2021/07/27 09:03:51;;;;;;;18.77;5.57;;;;;;;;;;6301612;22;19991;-53
2021/07/27 09:06:21;;;;;;;7.07;4.18;;;;;;;;;;6301867;22;19998;-58
2021/07/27 09:08:46;;;;;;;4.75;3.53;;;;;;;;;;6301490;22;20002;-51
2021/07/27 09:11:12;;;;;;;3.33;2.20;;;;;;;;;;6301500;22;19996;-53
2021/07/27 09:13:38;;;;;;;15.35;5.30;;;;;;;;;;6301556;22;20431;-53
2021/07/27 09:16:03;;;;;;;6.25;5.28;;;;;;;;;;6301913;22;20003;-56
2021/07/27 09:18:30;;;;;;;4.07;2.75;;;;;;;;;;6300978;22;20019;-55
2021/07/27 09:20:57;;;;;;;5.90;3.78;;;;;;;;;;6301392;22;20015;-55
2021/07/27 09:23:24;;;;;;;12.73;4.82;;;;;;;;;;6301480;22;19995;-54
2021/07/27 09:25:59;;;;;;;5.22;3.15;;;;;;;;;;6301954;22;20002;-58
2021/07/27 09:28:25;;;;;;;21.17;4.22;;;;;;;;;;6301185;22;20349;-57
2021/07/27 09:30:56;;;;;;;7.65;4.07;;;;;;;;;;6301562;22;19995;-50
2021/07/27 09:33:27;;;;;;;3.05;1.65;;;;;;;;;;6302220;22;20000;-59
2021/07/27 09:35:52;;;;;;;8.80;3.55;;;;;;;;;;6301673;22;19991;-58
2021/07/27 09:38:18;;;;;;;4.13;3.35;;;;;;;;;;6301826;22;19995;-54
2021/07/27 09:40:53;;;;;;;6.00;3.25;;;;;;;;;;6300633;22;20049;-56
2021/07/27 09:43:20;;;;;;;6.90;3.60;;;;;;;;;;6301100;22;19999;-57
2021/07/27 09:45:46;;;;;;;5.03;3.20;;;;;;;;;;6300970;22;20011;-58
2021/07/27 09:48:13;;;;;;;3.33;2.33;;;;;;;;;;6301399;22;20062;-59
2021/07/27 09:50:39;;;;;;;6.25;4.07;;;;;;;;;;6301159;22;19999;-56
2021/07/27 09:53:04;;;;;;;7.97;3.35;;;;;;;;;;6300840;22;20116;-57
2021/07/27 09:55:30;;;;;;;3.28;2.53;;;;;;;;;;6300818;22;19995;-59
2021/07/27 09:57:55;;;;;;;7.35;2.67;;;;;;;;;;6301015;22;20017;-59
2021/07/27 10:00:24;;;;;;;4.80;3.60;;;;;;;;;;6301459;22;20070;-61
2021/07/27 10:02:51;;;;;;;3.45;2.45;;;;;;;;;;6293069;22;20007;-60
2021/07/27 10:05:21;;;;;;;12.65;3.90;;;;;;;;;;6296693;22;20004;-59
2021/07/27 10:07:54;;;;;;;7.55;3.15;;;;;;;;;;6296095;22;20000;-58
2021/07/27 10:10:19;;;;;;;6.65;3.15;;;;;;;;;;6297111;22;20003;-59
2021/07/27 10:12:44;;;;;;;2.92;1.90;;;;;;;;;;6295660;22;20075;-57
2021/07/27 10:15:14;;;;;;;2.83;2.08;;;;;;;;;;6296028;22;19995;-59
2021/07/27 10:17:49;;;;;;;4.17;2.70;;;;;;;;;;6297116;22;20010;-58
2021/07/27 10:20:21;;;;;;;4.97;2.70;;;;;;;;;;6297316;22;20407;-58
2021/07/27 10:22:49;;;;;;;4.82;1.98;;;;;;;;;;6298512;22;20003;-57
2021/07/27 10:25:14;;;;;;;8.45;4.20;;;;;;;;;;6301327;22;19995;-59
2021/07/27 10:27:52;;;;;;;3.72;3.40;;;;;;;;;;6298960;22;20486;-58
2021/07/27 10:30:28;;;;;;;5.03;3.00;;;;;;;;;;6299520;22;19995;-58
2021/07/27 10:32:54;;;;;;;7.38;5.13;;;;;;;;;;6299167;22;20305;-58
2021/07/27 10:35:28;;;;;;;5.63;1.88;;;;;;;;;;6301197;22;20452;-59
2021/07/27 10:37:54;;;;;;;5.53;3.70;;;;;;;;;;6301064;22;20328;-60
2021/07/27 10:40:29;;;;;;;5.85;2.70;;;;;;;;;;6301456;22;19999;-56
2021/07/27 10:42:55;;;;;;;7.15;5.32;;;;;;;;;;6301342;22;20011;-57
2021/07/27 10:45:20;;;;;;;5.38;2.45;;;;;;;;;;6302310;22;20348;-58
2021/07/27 10:47:55;;;;;;;3.88;2.13;;;;;;;;;;6303345;22;19995;-47
2021/07/27 10:50:31;;;;;;;3.92;1.58;;;;;;;;;;6302872;22;19999;-58
2021/07/27 10:53:06;;;;;;;5.03;2.67;;;;;;;;;;6302038;22;20006;-58
2021/07/27 10:55:36;;;;;;;5.22;2.35;;;;;;;;;;6302691;22;20520;-60
2021/07/27 10:58:04;;;;;;;9.50;4.32;;;;;;;;;;6302813;22;20067;-59
2021/07/27 11:00:32;;;;;;;6.82;4.00;;;;;;;;;;6302842;22;20007;-59
2021/07/27 11:02:58;;;;;;;9.57;3.67;;;;;;;;;;6302266;22;20432;-59
2021/07/27 11:05:27;;;;;;;3.88;2.75;;;;;;;;;;6302733;22;19995;-59
2021/07/27 11:07:52;;;;;;;6.38;2.80;;;;;;;;;;6302848;22;20095;-59
2021/07/27 11:10:19;;;;;;;3.67;2.80;;;;;;;;;;6303014;22;20066;-59
2021/07/27 11:12:45;;;;;;;6.55;1.95;;;;;;;;;;6302702;22;19995;-59
2021/07/27 11:15:23;;;;;;;3.13;2.03;;;;;;;;;;6302977;22;19999;-59
2021/07/27 11:18:06;;;;;;;9.10;4.47;;;;;;;;;;6303259;22;19999;-59
2021/07/27 11:20:31;;;;;;;4.43;2.83;;;;;;;;;;6302544;22;20456;-59
2021/07/27 11:22:58;;;;;;;5.75;2.53;;;;;;;;;;6302649;22;19995;-58
2021/07/27 11:25:24;;;;;;;4.90;2.13;;;;;;;;;;6301187;22;20634;-58
2021/07/27 11:27:50;;;;;;;3.50;2.67;;;;;;;;;;6300982;22;20000;-58
2021/07/27 11:30:16;;;;;;;5.53;2.97;;;;;;;;;;6301515;22;20083;-58
2021/07/27 11:32:42;;;;;;;4.95;3.33;;;;;;;;;;6302695;22;20591;-57
2021/07/27 11:35:09;;;;;;;4.53;2.72;;;;;;;;;;6302921;22;20052;-58
2021/07/27 11:37:34;;;;;;;2.85;2.35;;;;;;;;;;6302690;22;19995;-58
2021/07/27 11:39:59;;;;;;;5.57;2.65;;;;;;;;;;6302777;22;20002;-57
2021/07/27 11:42:29;;;;;;;10.43;4.13;;;;;;;;;;6303082;22;20002;-58
2021/07/27 11:44:55;;;;;;;10.93;4.22;;;;;;;;;;6302343;22;20003;-58
2021/07/27 11:47:20;;;;;;;7.22;3.28;;;;;;;;;;6303496;22;20022;-58
2021/07/27 11:49:55;;;;;;;4.30;3.05;;;;;;;;;;6302848;22;20417;-57
2021/07/27 11:52:27;;;;;;;4.43;2.60;;;;;;;;;;6302786;22;20065;-59
2021/07/27 11:54:59;;;;;;;5.93;2.50;;;;;;;;;;6302171;22;20002;-58
2021/07/27 11:57:24;;;;;;;11.85;4.05;;;;;;;;;;6302545;22;20448;-58
2021/07/27 11:59:50;;;;;;;8.32;4.60;;;;;;;;;;6302291;22;20023;-59
2021/07/27 12:02:15;;;;;;;4.20;3.30;;;;;;;;;;6302330;22;19995;-59
2021/07/27 12:04:41;;;;;;;3.28;2.60;;;;;;;;;;6302419;22;20129;-59
2021/07/27 12:07:06;;;;;;;3.65;2.63;;;;;;;;;;6302018;22;20002;-59
2021/07/27 12:09:32;;;;;;;5.65;3.22;;;;;;;;;;6302543;22;20022;-59
2021/07/27 12:11:57;;;;;;;2.85;2.15;;;;;;;;;;6302643;22;20066;-59
2021/07/27 12:14:22;;;;;;;5.60;2.17;;;;;;;;;;6302263;22;20025;-59
2021/07/27 12:16:48;;;;;;;5.70;3.85;;;;;;;;;;6301992;22;19999;-58
2021/07/27 12:19:13;;;;;;;4.65;3.03;;;;;;;;;;6301905;22;20472;-59
2021/07/27 12:21:39;;;;;;;4.25;2.40;;;;;;;;;;6301814;22;20086;-57
2021/07/27 12:24:06;;;;;;;3.13;1.90;;;;;;;;;;6302276;22;20365;-58
2021/07/27 12:26:34;;;;;;;8.27;3.78;;;;;;;;;;6301135;22;20006;-58
2021/07/27 12:29:00;;;;;;;4.72;2.95;;;;;;;;;;6301544;22;19991;-59
2021/07/27 12:31:25;;;;;;;7.75;3.70;;;;;;;;;;6301162;22;19999;-58
2021/07/27 12:33:50;;;;;;;3.05;1.60;;;;;;;;;;6300878;22;20075;-59
2021/07/27 12:36:16;;;;;;;4.05;2.50;;;;;;;;;;6301369;22;20003;-60
2021/07/27 12:38:41;;;;;;;12.07;3.67;;;;;;;;;;6300576;22;19999;-58
2021/07/27 12:41:06;;;;;;;4.45;3.65;;;;;;;;;;6301336;22;20010;-59
2021/07/27 12:43:32;;;;;;;5.38;2.25;;;;;;;;;;6301982;22;20079;-58
2021/07/27 12:45:57;;;;;;;3.25;2.40;;;;;;;;;;6302198;22;20738;-54
2021/07/27 12:48:23;;;;;;;6.45;2.95;;;;;;;;;;6302043;22;20022;-58
2021/07/27 12:50:48;;;;;;;4.10;2.60;;;;;;;;;;6301916;22;20156;-55
2021/07/27 12:53:13;;;;;;;11.63;3.22;;;;;;;;;;6301725;22;20007;-59
2021/07/27 12:55:38;;;;;;;9.13;4.30;;;;;;;;;;6302169;22;20072;-59
2021/07/27 12:58:04;;;;;;;3.05;2.20;;;;;;;;;;6301734;22;19995;-58
2021/07/27 13:00:30;;;;;;;3.22;2.88;;;;;;;;;;6301813;22;20421;-54
2021/07/27 13:02:55;;;;;;;6.65;2.75;;;;;;;;;;6301597;22;20440;-56
2021/07/27 13:05:20;;;;;;;4.47;2.13;;;;;;;;;;6301767;22;19995;-59
2021/07/27 13:07:46;;;;;;;6.38;3.33;;;;;;;;;;6301615;22;20336;-58
2021/07/27 13:10:13;;;;;;;7.00;3.25;;;;;;;;;;6301323;22;19999;-60
2021/07/27 13:12:38;;;;;;;3.55;2.47;;;;;;;;;;6301438;22;20051;-56
2021/07/27 13:15:04;;;;;;;5.28;2.55;;;;;;;;;;6301813;22;20421;-61
2021/07/27 13:17:29;;;;;;;6.25;2.70;;;;;;;;;;6301638;22;19999;-59
2021/07/27 13:19:55;;;;;;;6.78;3.60;;;;;;;;;;6301540;22;20072;-62
2021/07/27 13:22:20;;;;;;;5.10;3.90;;;;;;;;;;6301825;22;20433;-53
2021/07/27 13:24:47;;;;;;;5.47;4.03;;;;;;;;;;6301110;22;20241;-51
2021/07/27 13:27:12;;;;;;;3.20;2.08;;;;;;;;;;6300887;22;20023;-53
2021/07/27 13:29:38;;;;;;;3.60;2.35;;;;;;;;;;6301685;22;19991;-58
2021/07/27 13:32:04;;;;;;;3.15;2.65;;;;;;;;;;6301306;22;20100;-56
2021/07/27 13:34:29;;;;;;;6.80;3.97;;;;;;;;;;6301507;22;20010;-61
2021/07/27 13:36:54;;;;;;;3.42;2.33;;;;;;;;;;6301138;22;20007;-59
2021/07/27 13:39:20;;;;;;;6.47;3.17;;;;;;;;;;6301376;22;20006;-59
2021/07/27 13:41:45;;;;;;;3.40;1.85;;;;;;;;;;6300285;22;20115;-59
2021/07/27 13:44:10;;;;;;;2.70;1.58;;;;;;;;;;6301013;22;19991;-60
2021/07/27 13:46:35;;;;;;;4.07;2.75;;;;;;;;;;6301532;22;20004;-60
2021/07/27 13:49:01;;;;;;;4.22;2.03;;;;;;;;;;6301731;22;19999;-62
2021/07/27 13:51:26;;;;;;;4.85;2.28;;;;;;;;;;6300855;22;20688;-61
2021/07/27 13:53:56;;;;;;;3.15;2.45;;;;;;;;;;6301525;22;20028;-59
2021/07/27 13:56:21;;;;;;;6.18;2.83;;;;;;;;;;6301514;22;20129;-59
2021/07/27 13:58:46;;;;;;;7.00;3.08;;;;;;;;;;6300852;22;20044;-61
2021/07/27 14:01:12;;;;;;;6.88;2.22;;;;;;;;;;6300731;22;20006;-58
2021/07/27 14:03:38;;;;;;;6.63;2.10;;;;;;;;;;6301003;22;20389;-56
2021/07/27 14:06:03;;;;;;;4.28;2.65;;;;;;;;;;6299913;22;20483;-60
2021/07/27 14:08:28;;;;;;;4.22;2.70;;;;;;;;;;6300528;22;19999;-61
2021/07/27 14:10:54;;;;;;;4.53;2.53;;;;;;;;;;6301094;22;20030;-60
2021/07/27 14:13:19;;;;;;;3.67;2.00;;;;;;;;;;6301324;22;20365;-59
2021/07/27 14:15:44;;;;;;;3.08;2.60;;;;;;;;;;6301364;22;19996;-59
2021/07/27 14:18:10;;;;;;;3.55;1.85;;;;;;;;;;6300997;22;19995;-55
2021/07/27 14:20:35;;;;;;;12.02;3.85;;;;;;;;;;6301476;22;20006;-59
2021/07/27 14:23:00;;;;;;;2.78;2.22;;;;;;;;;;6300787;22;20014;-57
2021/07/27 14:25:27;;;;;;;5.50;2.63;;;;;;;;;;6301392;22;20006;-56
2021/07/27 14:27:53;;;;;;;2.65;1.73;;;;;;;;;;6301375;22;19999;-60
2021/07/27 14:30:18;;;;;;;5.28;3.15;;;;;;;;;;6301316;22;20420;-55
2021/07/27 14:32:43;;;;;;;3.97;3.00;;;;;;;;;;6300842;22;19995;-59
2021/07/27 14:35:09;;;;;;;4.85;2.05;;;;;;;;;;6301700;22;20002;-58
2021/07/27 14:37:34;;;;;;;2.50;2.00;;;;;;;;;;6301208;22;20340;-58
2021/07/27 14:40:00;;;;;;;4.35;3.15;;;;;;;;;;6301171;22;20341;-51
2021/07/27 14:42:25;;;;;;;4.57;2.08;;;;;;;;;;6300840;22;20472;-64
2021/07/27 14:44:50;;;;;;;3.03;2.35;;;;;;;;;;6300883;22;19991;-59
2021/07/27 14:47:16;;;;;;;2.13;1.20;;;;;;;;;;6301191;22;19999;-60
2021/07/27 14:49:41;;;;;;;4.00;1.70;;;;;;;;;;6301454;22;20002;-65
2021/07/27 14:52:06;;;;;;;5.05;2.10;;;;;;;;;;6300557;22;20758;-63